sensor_id;sensor_type;location;lat;lon;timestamp;pressure;altitude;pressure_sealevel;temperature;humidity
65376;BME280;51976;47.332;9.404;2022-09-20T00:01:07;93306.63;;;19.49;47.46
65376;BME280;51976;47.332;9.404;2022-09-20T00:03:37;93304.09;;;19.52;47.47
65376;BME280;51976;47.332;9.404;2022-09-20T00:06:05;93306.00;;;19.52;47.62
65376;BME280;51976;47.332;9.404;2022-09-20T00:08:31;93301.16;;;19.49;47.42
65376;BME280;51976;47.332;9.404;2022-09-20T00:11:04;93310.69;;;19.51;47.17
65376;BME280;51976;47.332;9.404;2022-09-20T00:13:31;93308.25;;;19.50;47.32
65376;BME280;51976;47.332;9.404;2022-09-20T00:15:58;93302.78;;;19.50;47.45
65376;BME280;51976;47.332;9.404;2022-09-20T00:18:24;93308.25;;;19.50;47.39
65376;BME280;51976;47.332;9.404;2022-09-20T00:20:50;93309.38;;;19.49;47.17
65376;BME280;51976;47.332;9.404;2022-09-20T00:23:16;93306.63;;;19.49;47.32
65376;BME280;51976;47.332;9.404;2022-09-20T00:25:42;93304.41;;;19.51;47.19
65376;BME280;51976;47.332;9.404;2022-09-20T00:28:08;93299.22;;;19.49;47.39
65376;BME280;51976;47.332;9.404;2022-09-20T00:30:35;93287.00;;;19.47;47.32
65376;BME280;51976;47.332;9.404;2022-09-20T00:33:01;93296.50;;;19.49;47.10
65376;BME280;51976;47.332;9.404;2022-09-20T00:35:27;93289.09;;;19.50;47.23
65376;BME280;51976;47.332;9.404;2022-09-20T00:37:54;93292.16;;;19.48;47.38
65376;BME280;51976;47.332;9.404;2022-09-20T00:40:21;93286.69;;;19.48;47.30
65376;BME280;51976;47.332;9.404;2022-09-20T00:42:48;93282.81;;;19.49;47.05
65376;BME280;51976;47.332;9.404;2022-09-20T00:45:24;93285.88;;;19.48;47.22
65376;BME280;51976;47.332;9.404;2022-09-20T00:48:11;93275.28;;;19.46;47.07
65376;BME280;51976;47.332;9.404;2022-09-20T00:50:42;93271.75;;;19.46;47.16
65376;BME280;51976;47.332;9.404;2022-09-20T00:53:13;93274.47;;;19.46;47.30
65376;BME280;51976;47.332;9.404;2022-09-20T00:55:47;93267.41;;;19.45;47.09
65376;BME280;51976;47.332;9.404;2022-09-20T00:58:14;93267.06;;;19.46;47.39
65376;BME280;51976;47.332;9.404;2022-09-20T01:00:42;93265.78;;;19.44;47.30
65376;BME280;51976;47.332;9.404;2022-09-20T01:03:09;93265.47;;;19.45;47.44
65376;BME280;51976;47.332;9.404;2022-09-20T01:05:36;93270.94;;;19.45;47.18
65376;BME280;51976;47.332;9.404;2022-09-20T01:08:04;93261.94;;;19.45;47.32
65376;BME280;51976;47.332;9.404;2022-09-20T01:10:30;93267.41;;;19.45;46.92
65376;BME280;51976;47.332;9.404;2022-09-20T01:12:56;93261.94;;;19.45;47.26
65376;BME280;51976;47.332;9.404;2022-09-20T01:15:23;93265.78;;;19.44;46.97
65376;BME280;51976;47.332;9.404;2022-09-20T01:17:53;93264.19;;;19.43;47.07
65376;BME280;51976;47.332;9.404;2022-09-20T01:20:23;93260.31;;;19.44;47.14
65376;BME280;51976;47.332;9.404;2022-09-20T01:31:45;93257.47;;;19.40;47.22
65376;BME280;51976;47.332;9.404;2022-09-20T01:34:17;93253.25;;;19.43;46.93
65376;BME280;51976;47.332;9.404;2022-09-20T01:36:54;93255.97;;;19.43;47.23
65376;BME280;51976;47.332;9.404;2022-09-20T01:39:49;93258.72;;;19.43;47.01
65376;BME280;51976;47.332;9.404;2022-09-20T01:42:22;93249.38;;;19.44;46.99
65376;BME280;51976;47.332;9.404;2022-09-20T01:45:14;93248.59;;;19.43;46.83
65376;BME280;51976;47.332;9.404;2022-09-20T01:48:13;93243.47;;;19.42;47.04
65376;BME280;51976;47.332;9.404;2022-09-20T01:51:24;93240.06;;;19.45;46.92
65376;BME280;51976;47.332;9.404;2022-09-20T01:54:37;93243.91;;;19.44;46.88
65376;BME280;51976;47.332;9.404;2022-09-20T01:57:51;93243.91;;;19.44;46.98
65376;BME280;51976;47.332;9.404;2022-09-20T02:00:06;93237.31;;;19.45;46.89
65376;BME280;51976;47.332;9.404;2022-09-20T02:03:06;93242.78;;;19.45;46.86
65376;BME280;51976;47.332;9.404;2022-09-20T02:05:57;93240.06;;;19.45;46.74
65376;BME280;51976;47.332;9.404;2022-09-20T02:11:50;93235.72;;;19.44;46.71
65376;BME280;51976;47.332;9.404;2022-09-20T02:14:44;93240.06;;;19.45;46.97
65376;BME280;51976;47.332;9.404;2022-09-20T02:17:54;93236.84;;;19.43;46.80
65376;BME280;51976;47.332;9.404;2022-09-20T02:21:10;93243.00;;;19.40;46.90
65376;BME280;51976;47.332;9.404;2022-09-20T02:23:40;93231.25;;;19.39;47.13
65376;BME280;51976;47.332;9.404;2022-09-20T02:26:27;93232.88;;;19.40;46.49
65376;BME280;51976;47.332;9.404;2022-09-20T02:32:33;93241.38;;;19.39;46.57
65376;BME280;51976;47.332;9.404;2022-09-20T02:35:08;93244.13;;;19.39;46.53
65376;BME280;51976;47.332;9.404;2022-09-20T02:37:54;93243.78;;;19.40;46.68
65376;BME280;51976;47.332;9.404;2022-09-20T02:40:59;93243.78;;;19.40;46.86
65376;BME280;51976;47.332;9.404;2022-09-20T02:43:34;93240.25;;;19.40;46.83
65376;BME280;51976;47.332;9.404;2022-09-20T02:46:09;93241.88;;;19.41;46.44
65376;BME280;51976;47.332;9.404;2022-09-20T02:48:46;93245.72;;;19.40;46.87
65376;BME280;51976;47.332;9.404;2022-09-20T02:51:29;93250.06;;;19.41;46.69
65376;BME280;51976;47.332;9.404;2022-09-20T02:54:23;93251.69;;;19.42;46.75
65376;BME280;51976;47.332;9.404;2022-09-20T02:56:59;93253.94;;;19.40;46.83
65376;BME280;51976;47.332;9.404;2022-09-20T02:59:40;93255.53;;;19.41;46.52
65376;BME280;51976;47.332;9.404;2022-09-20T03:02:35;93245.41;;;19.41;46.47
65376;BME280;51976;47.332;9.404;2022-09-20T03:05:29;93260.53;;;19.39;46.82
65376;BME280;51976;47.332;9.404;2022-09-20T03:08:19;93266.47;;;19.41;46.54
65376;BME280;51976;47.332;9.404;2022-09-20T03:14:20;93259.41;;;19.40;46.64
65376;BME280;51976;47.332;9.404;2022-09-20T03:17:21;93259.41;;;19.40;46.94
65376;BME280;51976;47.332;9.404;2022-09-20T03:20:12;93264.38;;;19.38;46.66
65376;BME280;51976;47.332;9.404;2022-09-20T03:23:28;93263.25;;;19.39;46.67
65376;BME280;51976;47.332;9.404;2022-09-20T03:25:56;93267.59;;;19.40;46.57
65376;BME280;51976;47.332;9.404;2022-09-20T03:28:42;93274.19;;;19.39;46.44
65376;BME280;51976;47.332;9.404;2022-09-20T03:31:40;93267.94;;;19.38;46.53
65376;BME280;51976;47.332;9.404;2022-09-20T03:34:48;93238.22;;;19.19;46.45
65376;BME280;51976;47.332;9.404;2022-09-20T03:37:36;93269.84;;;19.38;46.50
65376;BME280;51976;47.332;9.404;2022-09-20T03:43:14;93269.06;;;19.37;46.23
65376;BME280;51976;47.332;9.404;2022-09-20T03:46:08;93268.56;;;19.35;46.40
65376;BME280;51976;47.332;9.404;2022-09-20T03:51:47;93267.94;;;19.38;46.67
65376;BME280;51976;47.332;9.404;2022-09-20T03:54:47;93271.47;;;19.39;46.59
65376;BME280;51976;47.332;9.404;2022-09-20T03:57:41;93274.66;;;19.41;46.55
65376;BME280;51976;47.332;9.404;2022-09-20T04:03:31;93262.59;;;19.42;46.29
65376;BME280;51976;47.332;9.404;2022-09-20T04:06:12;93270.81;;;19.42;46.40
65376;BME280;51976;47.332;9.404;2022-09-20T04:09:09;93263.75;;;19.41;46.45
65376;BME280;51976;47.332;9.404;2022-09-20T04:11:52;93262.94;;;19.40;46.69
65376;BME280;51976;47.332;9.404;2022-09-20T04:14:33;93263.59;;;19.37;46.34
65376;BME280;51976;47.332;9.404;2022-09-20T04:17:38;93264.38;;;19.38;46.52
65376;BME280;51976;47.332;9.404;2022-09-20T04:20:22;93257.63;;;19.35;46.41
65376;BME280;51976;47.332;9.404;2022-09-20T04:22:54;93254.44;;;19.33;46.64
65376;BME280;51976;47.332;9.404;2022-09-20T04:25:36;93252.16;;;19.35;46.64
65376;BME280;51976;47.332;9.404;2022-09-20T04:28:10;93252.97;;;19.36;46.61
65376;BME280;51976;47.332;9.404;2022-09-20T04:30:39;93258.44;;;19.36;46.82
65376;BME280;51976;47.332;9.404;2022-09-20T04:33:24;93263.25;;;19.39;46.40
65376;BME280;51976;47.332;9.404;2022-09-20T04:36:23;93255.06;;;19.39;46.75
65376;BME280;51976;47.332;9.404;2022-09-20T04:46:08;93252.31;;;19.39;46.41
65376;BME280;51976;47.332;9.404;2022-09-20T04:48:44;93257.31;;;19.37;46.58
65376;BME280;51976;47.332;9.404;2022-09-20T04:51:31;93259.72;;;19.38;46.52
65376;BME280;51976;47.332;9.404;2022-09-20T04:54:36;93258.59;;;19.39;46.27
65376;BME280;51976;47.332;9.404;2022-09-20T04:57:35;93255.88;;;19.39;46.59
65376;BME280;51976;47.332;9.404;2022-09-20T05:00:10;93261.31;;;19.39;46.63
65376;BME280;51976;47.332;9.404;2022-09-20T05:03:24;93268.72;;;19.39;46.39
65376;BME280;51976;47.332;9.404;2022-09-20T05:06:32;93280.13;;;19.41;46.40
65376;BME280;51976;47.332;9.404;2022-09-20T05:09:15;93280.25;;;19.44;46.30
65376;BME280;51976;47.332;9.404;2022-09-20T05:12:15;93273.19;;;19.52;46.18
65376;BME280;51976;47.332;9.404;2022-09-20T05:18:18;93285.41;;;19.63;46.09
65376;BME280;51976;47.332;9.404;2022-09-20T05:21:22;93285.41;;;19.63;45.92
65376;BME280;51976;47.332;9.404;2022-09-20T05:24:03;93282.81;;;19.67;45.83
65376;BME280;51976;47.332;9.404;2022-09-20T05:29:37;93292.63;;;19.68;45.97
65376;BME280;51976;47.332;9.404;2022-09-20T05:32:44;93287.28;;;19.71;45.94
65376;BME280;51976;47.332;9.404;2022-09-20T05:35:26;93284.69;;;19.75;45.62
65376;BME280;51976;47.332;9.404;2022-09-20T05:38:26;93287.56;;;19.78;45.69
65376;BME280;51976;47.332;9.404;2022-09-20T05:41:07;93298.19;;;19.80;45.60
65376;BME280;51976;47.332;9.404;2022-09-20T05:43:49;93304.47;;;19.80;45.91
65376;BME280;51976;47.332;9.404;2022-09-20T05:46:34;93302.53;;;19.81;45.71
65376;BME280;51976;47.332;9.404;2022-09-20T05:49:28;93297.06;;;19.81;45.94
65376;BME280;51976;47.332;9.404;2022-09-20T05:52:25;93301.41;;;19.82;45.69
65376;BME280;51976;47.332;9.404;2022-09-20T05:55:26;93303.34;;;19.81;46.03
65376;BME280;51976;47.332;9.404;2022-09-20T05:58:10;93302.69;;;19.84;45.85
65376;BME280;51976;47.332;9.404;2022-09-20T06:00:52;93314.09;;;19.86;45.97
65376;BME280;51976;47.332;9.404;2022-09-20T06:03:38;93312.97;;;19.87;45.71
65376;BME280;51976;47.332;9.404;2022-09-20T06:06:20;93315.38;;;19.89;45.66
65376;BME280;51976;47.332;9.404;2022-09-20T06:09:10;93308.31;;;19.88;46.12
65376;BME280;51976;47.332;9.404;2022-09-20T06:12:02;93307.19;;;19.89;46.02
65376;BME280;51976;47.332;9.404;2022-09-20T06:14:54;93302.50;;;19.89;45.78
65376;BME280;51976;47.332;9.404;2022-09-20T06:17:41;93307.34;;;19.92;45.99
65376;BME280;51976;47.332;9.404;2022-09-20T06:20:29;93304.59;;;19.92;45.85
65376;BME280;51976;47.332;9.404;2022-09-20T06:22:59;93303.47;;;19.93;45.72
65376;BME280;51976;47.332;9.404;2022-09-20T06:25:40;93301.19;;;19.96;45.67
65376;BME280;51976;47.332;9.404;2022-09-20T06:28:16;93306.19;;;19.93;45.70
65376;BME280;51976;47.332;9.404;2022-09-20T06:30:47;93305.19;;;19.98;45.77
65376;BME280;51976;47.332;9.404;2022-09-20T06:33:23;93306.47;;;20.01;45.61
65376;BME280;51976;47.332;9.404;2022-09-20T06:36:14;93307.75;;;20.03;45.50
65376;BME280;51976;47.332;9.404;2022-09-20T06:39:13;93309.34;;;20.04;45.74
65376;BME280;51976;47.332;9.404;2022-09-20T06:42:00;93299.06;;;20.01;45.80
65376;BME280;51976;47.332;9.404;2022-09-20T06:44:26;93304.22;;;20.03;45.87
65376;BME280;51976;47.332;9.404;2022-09-20T06:46:51;93304.06;;;19.99;45.76
65376;BME280;51976;47.332;9.404;2022-09-20T06:49:19;93302.59;;;20.02;45.74
65376;BME280;51976;47.332;9.404;2022-09-20T06:51:45;93302.59;;;20.02;45.95
65376;BME280;51976;47.332;9.404;2022-09-20T06:54:16;93301.13;;;20.04;45.84
65376;BME280;51976;47.332;9.404;2022-09-20T06:56:42;93300.34;;;20.04;45.74
65376;BME280;51976;47.332;9.404;2022-09-20T06:59:08;93305.16;;;20.07;45.93
65376;BME280;51976;47.332;9.404;2022-09-20T07:01:37;93302.88;;;20.09;45.61
65376;BME280;51976;47.332;9.404;2022-09-20T07:04:03;93301.28;;;20.08;45.65
65376;BME280;51976;47.332;9.404;2022-09-20T07:06:30;93305.16;;;20.07;45.68
65376;BME280;51976;47.332;9.404;2022-09-20T07:08:56;93304.81;;;20.08;45.72
65376;BME280;51976;47.332;9.404;2022-09-20T07:11:21;93298.56;;;20.08;45.75
65376;BME280;51976;47.332;9.404;2022-09-20T07:13:52;93289.22;;;20.09;45.63
65376;BME280;51976;47.332;9.404;2022-09-20T07:16:18;93299.16;;;20.13;45.86
65376;BME280;51976;47.332;9.404;2022-09-20T07:18:45;93299.97;;;20.14;45.67
65376;BME280;51976;47.332;9.404;2022-09-20T07:21:11;93299.16;;;20.13;45.93
65376;BME280;51976;47.332;9.404;2022-09-20T07:23:37;93305.13;;;20.15;45.71
65376;BME280;51976;47.332;9.404;2022-09-20T07:26:03;93301.91;;;20.13;45.72
65376;BME280;51976;47.332;9.404;2022-09-20T07:28:31;93307.06;;;20.15;45.84
65376;BME280;51976;47.332;9.404;2022-09-20T07:30:57;93303.19;;;20.16;45.95
65376;BME280;51976;47.332;9.404;2022-09-20T07:33:23;93311.06;;;20.17;45.66
65376;BME280;51976;47.332;9.404;2022-09-20T07:35:51;93301.25;;;20.16;45.72
65376;BME280;51976;47.332;9.404;2022-09-20T07:38:19;93303.66;;;20.18;46.01
65376;BME280;51976;47.332;9.404;2022-09-20T07:40:53;93307.19;;;20.18;45.79
65376;BME280;51976;47.332;9.404;2022-09-20T07:43:19;93309.59;;;20.20;45.75
65376;BME280;51976;47.332;9.404;2022-09-20T07:45:49;93321.22;;;20.17;45.82
65376;BME280;51976;47.332;9.404;2022-09-20T07:48:15;93316.22;;;20.19;45.96
65376;BME280;51976;47.332;9.404;2022-09-20T07:50:49;93318.28;;;20.22;45.78
65376;BME280;51976;47.332;9.404;2022-09-20T07:53:15;93322.63;;;20.23;45.84
65376;BME280;51976;47.332;9.404;2022-09-20T07:55:40;93319.91;;;20.23;45.76
65376;BME280;51976;47.332;9.404;2022-09-20T07:58:06;93314.06;;;20.24;45.82
65376;BME280;51976;47.332;9.404;2022-09-20T08:00:31;93324.25;;;20.24;45.73
65376;BME280;51976;47.332;9.404;2022-09-20T08:02:57;93322.28;;;20.24;45.93
65376;BME280;51976;47.332;9.404;2022-09-20T08:05:24;93316.47;;;20.26;45.69
65376;BME280;51976;47.332;9.404;2022-09-20T08:07:50;93324.69;;;20.26;45.75
65376;BME280;51976;47.332;9.404;2022-09-20T08:10:15;93328.56;;;20.25;45.84
65376;BME280;51976;47.332;9.404;2022-09-20T08:12:40;93320.69;;;20.23;45.96
65376;BME280;51976;47.332;9.404;2022-09-20T08:15:06;93327.75;;;20.24;46.05
65376;BME280;51976;47.332;9.404;2022-09-20T08:17:32;93334.38;;;20.23;46.04
65376;BME280;51976;47.332;9.404;2022-09-20T08:19:57;93335.63;;;20.26;46.04
65376;BME280;51976;47.332;9.404;2022-09-20T08:22:22;93340.94;;;20.31;45.69
65376;BME280;51976;47.332;9.404;2022-09-20T08:24:48;93338.19;;;20.31;45.88
65376;BME280;51976;47.332;9.404;2022-09-20T08:27:14;93336.59;;;20.30;45.80
65376;BME280;51976;47.332;9.404;2022-09-20T08:29:39;93340.94;;;20.31;46.05
65376;BME280;51976;47.332;9.404;2022-09-20T08:32:05;93341.06;;;20.35;46.00
65376;BME280;51976;47.332;9.404;2022-09-20T08:34:30;93347.34;;;20.35;45.78
65376;BME280;51976;47.332;9.404;2022-09-20T08:36:55;93347.69;;;20.34;45.86
65376;BME280;51976;47.332;9.404;2022-09-20T08:39:21;93353.63;;;20.36;45.80
65376;BME280;51976;47.332;9.404;2022-09-20T08:42:08;93345.41;;;20.36;45.79
65376;BME280;51976;47.332;9.404;2022-09-20T08:44:47;93343.50;;;20.36;46.06
65376;BME280;51976;47.332;9.404;2022-09-20T08:47:25;93340.75;;;20.36;45.99
65376;BME280;51976;47.332;9.404;2022-09-20T08:49:52;93333.03;;;20.38;45.97
65376;BME280;51976;47.332;9.404;2022-09-20T08:52:24;93341.72;;;20.40;45.81
65376;BME280;51976;47.332;9.404;2022-09-20T08:54:53;93331.56;;;20.41;45.80
65376;BME280;51976;47.332;9.404;2022-09-20T08:57:30;93336.88;;;20.46;45.93
65376;BME280;51976;47.332;9.404;2022-09-20T08:59:59;93338.81;;;20.45;45.89
65376;BME280;51976;47.332;9.404;2022-09-20T09:02:30;93332.19;;;20.46;46.02
65376;BME280;51976;47.332;9.404;2022-09-20T09:04:55;93338.47;;;20.47;45.98
65376;BME280;51976;47.332;9.404;2022-09-20T09:07:21;93335.41;;;20.48;45.67
65376;BME280;51976;47.332;9.404;2022-09-20T09:09:51;93331.88;;;20.48;46.06
65376;BME280;51976;47.332;9.404;2022-09-20T09:12:22;93328.31;;;20.47;45.93
65376;BME280;51976;47.332;9.404;2022-09-20T09:14:50;93325.59;;;20.47;45.75
65376;BME280;51976;47.332;9.404;2022-09-20T09:17:21;93330.41;;;20.50;46.16
65376;BME280;51976;47.332;9.404;2022-09-20T09:19:51;93333.59;;;20.52;45.77
65376;BME280;51976;47.332;9.404;2022-09-20T09:22:19;93332.00;;;20.51;45.81
65376;BME280;51976;47.332;9.404;2022-09-20T09:25:05;93330.41;;;20.50;45.98
65376;BME280;51976;47.332;9.404;2022-09-20T09:27:30;93329.28;;;20.51;45.93
65376;BME280;51976;47.332;9.404;2022-09-20T09:29:55;93328.56;;;20.54;45.70
65376;BME280;51976;47.332;9.404;2022-09-20T09:32:24;93327.91;;;20.57;45.71
65376;BME280;51976;47.332;9.404;2022-09-20T09:34:53;93314.22;;;20.57;45.76
65376;BME280;51976;47.332;9.404;2022-09-20T09:37:27;93317.25;;;20.65;45.79
65376;BME280;51976;47.332;9.404;2022-09-20T09:40:13;93322.06;;;20.68;45.62
65376;BME280;51976;47.332;9.404;2022-09-20T09:42:54;93323.19;;;20.67;45.65
65376;BME280;51976;47.332;9.404;2022-09-20T09:45:29;93315.63;;;20.64;45.69
65376;BME280;51976;47.332;9.404;2022-09-20T09:47:58;93318.38;;;20.64;45.79
65376;BME280;51976;47.332;9.404;2022-09-20T09:50:28;93313.69;;;20.64;45.68
65376;BME280;51976;47.332;9.404;2022-09-20T09:53:12;93320.94;;;20.69;45.63
65376;BME280;51976;47.332;9.404;2022-09-20T09:55:52;93317.53;;;20.72;45.45
65376;BME280;51976;47.332;9.404;2022-09-20T09:58:52;93318.56;;;20.79;45.63
65376;BME280;51976;47.332;9.404;2022-09-20T10:01:43;93318.47;;;20.76;45.70
65376;BME280;51976;47.332;9.404;2022-09-20T10:04:22;93315.97;;;20.83;45.61
65376;BME280;51976;47.332;9.404;2022-09-20T10:07:43;93309.50;;;20.87;45.29
65376;BME280;51976;47.332;9.404;2022-09-20T10:10:20;93316.91;;;20.87;45.58
65376;BME280;51976;47.332;9.404;2022-09-20T10:13:08;93314.97;;;20.87;45.70
65376;BME280;51976;47.332;9.404;2022-09-20T10:15:56;93310.16;;;20.84;45.65
65376;BME280;51976;47.332;9.404;2022-09-20T10:18:51;93312.22;;;20.87;45.51
65376;BME280;51976;47.332;9.404;2022-09-20T10:21:45;93311.44;;;20.87;45.65
65376;BME280;51976;47.332;9.404;2022-09-20T10:24:58;93316.91;;;20.87;45.39
65376;BME280;51976;47.332;9.404;2022-09-20T10:27:33;93316.09;;;20.86;45.74
65376;BME280;51976;47.332;9.404;2022-09-20T10:30:13;93312.22;;;20.87;45.38
65376;BME280;51976;47.332;9.404;2022-09-20T10:32:57;93317.72;;;20.87;45.58
65376;BME280;51976;47.332;9.404;2022-09-20T10:35:29;93285.78;;;20.71;45.40
65376;BME280;51976;47.332;9.404;2022-09-20T10:38:14;93315.31;;;20.86;45.66
65376;BME280;51976;47.332;9.404;2022-09-20T10:41:08;93283.50;;;20.73;45.54
65376;BME280;51976;47.332;9.404;2022-09-20T10:44:09;93309.97;;;20.89;45.57
65376;BME280;51976;47.332;9.404;2022-09-20T10:47:18;93315.19;;;21.03;45.21
65376;BME280;51976;47.332;9.404;2022-09-20T10:50:16;93314.09;;;20.95;45.59
65376;BME280;51976;47.332;9.404;2022-09-20T10:53:16;93320.25;;;20.92;45.49
65376;BME280;51976;47.332;9.404;2022-09-20T10:55:52;93323.59;;;20.98;45.64
65376;BME280;51976;47.332;9.404;2022-09-20T10:58:27;93315.25;;;20.94;45.50
65376;BME280;51976;47.332;9.404;2022-09-20T11:01:22;93304.47;;;21.10;45.20
65376;BME280;51976;47.332;9.404;2022-09-20T11:04:11;93308.91;;;21.23;45.08
65376;BME280;51976;47.332;9.404;2022-09-20T11:07:08;93302.06;;;21.30;44.83
65376;BME280;51976;47.332;9.404;2022-09-20T11:09:39;93306.50;;;21.34;45.10
65376;BME280;51976;47.332;9.404;2022-09-20T11:12:22;93304.22;;;21.24;45.15
65376;BME280;51976;47.332;9.404;2022-09-20T11:14:54;93298.41;;;21.25;45.12
65376;BME280;51976;47.332;9.404;2022-09-20T11:17:33;93309.72;;;21.36;45.10
65376;BME280;51976;47.332;9.404;2022-09-20T11:20:21;93311.91;;;21.43;44.86
65376;BME280;51976;47.332;9.404;2022-09-20T11:22:54;93310.53;;;21.37;44.82
65376;BME280;51976;47.332;9.404;2022-09-20T11:25:37;93300.41;;;21.49;44.69
65376;BME280;51976;47.332;9.404;2022-09-20T11:31:35;93307.63;;;21.54;44.77
65376;BME280;51976;47.332;9.404;2022-09-20T11:34:11;93305.91;;;21.49;44.91
65376;BME280;51976;47.332;9.404;2022-09-20T11:36:48;93315.81;;;21.42;45.18
65376;BME280;51976;47.332;9.404;2022-09-20T11:39:41;93309.38;;;21.38;45.04
65376;BME280;51976;47.332;9.404;2022-09-20T11:42:14;93311.66;;;21.36;45.27
65376;BME280;51976;47.332;9.404;2022-09-20T11:44:40;93307.78;;;21.37;45.35
65376;BME280;51976;47.332;9.404;2022-09-20T11:47:20;93301.88;;;21.47;45.01
65376;BME280;51976;47.332;9.404;2022-09-20T11:50:24;93306.94;;;21.57;44.76
65376;BME280;51976;47.332;9.404;2022-09-20T11:55:45;93294.84;;;21.58;44.80
65376;BME280;51976;47.332;9.404;2022-09-20T11:58:14;93298.47;;;21.50;45.11
65376;BME280;51976;47.332;9.404;2022-09-20T12:00:44;93297.31;;;21.51;45.08
65376;BME280;51976;47.332;9.404;2022-09-20T12:03:36;93296.66;;;21.54;45.19
65376;BME280;51976;47.332;9.404;2022-09-20T12:06:05;93293.22;;;21.57;44.99
65376;BME280;51976;47.332;9.404;2022-09-20T12:08:35;93291.97;;;21.54;45.10
65376;BME280;51976;47.332;9.404;2022-09-20T12:11:04;93296.31;;;21.68;44.83
65376;BME280;51976;47.332;9.404;2022-09-20T12:13:34;93292.56;;;21.72;44.76
65376;BME280;51976;47.332;9.404;2022-09-20T12:16:12;93291.19;;;21.66;45.01
65376;BME280;51976;47.332;9.404;2022-09-20T12:19:04;93296.88;;;21.61;45.27
65376;BME280;51976;47.332;9.404;2022-09-20T12:24:37;93295.19;;;21.56;44.95
65376;BME280;51976;47.332;9.404;2022-09-20T12:30:18;93287.50;;;21.62;44.91
65376;BME280;51976;47.332;9.404;2022-09-20T12:32:46;93297.91;;;21.56;45.20
65376;BME280;51976;47.332;9.404;2022-09-20T12:35:55;93289.56;;;21.53;45.15
65376;BME280;51976;47.332;9.404;2022-09-20T12:38:26;93289.22;;;21.54;45.42
65376;BME280;51976;47.332;9.404;2022-09-20T12:41:10;93279.84;;;21.55;45.43
65376;BME280;51976;47.332;9.404;2022-09-20T12:43:46;93279.72;;;21.52;45.46
65376;BME280;51976;47.332;9.404;2022-09-20T12:46:20;93278.59;;;21.53;45.30
65376;BME280;51976;47.332;9.404;2022-09-20T12:48:47;93282.47;;;21.52;45.59
65376;BME280;51976;47.332;9.404;2022-09-20T12:51:20;93283.63;;;21.51;45.36
65376;BME280;51976;47.332;9.404;2022-09-20T12:54:09;93285.88;;;21.49;45.30
65376;BME280;51976;47.332;9.404;2022-09-20T12:56:38;93292.06;;;21.46;45.64
65376;BME280;51976;47.332;9.404;2022-09-20T12:59:18;93290.13;;;21.46;45.72
65376;BME280;51976;47.332;9.404;2022-09-20T13:01:45;93289.66;;;21.44;45.50
65376;BME280;51976;47.332;9.404;2022-09-20T13:04:53;93291.25;;;21.45;45.43
65376;BME280;51976;47.332;9.404;2022-09-20T13:07:35;93289.19;;;21.42;45.81
65376;BME280;51976;47.332;9.404;2022-09-20T13:10:17;93281.63;;;21.39;45.71
65376;BME280;51976;47.332;9.404;2022-09-20T13:12:45;93287.44;;;21.38;45.69
65376;BME280;51976;47.332;9.404;2022-09-20T13:15:17;93276.47;;;21.38;45.71
65376;BME280;51976;47.332;9.404;2022-09-20T13:17:45;93278.28;;;21.34;45.88
65376;BME280;51976;47.332;9.404;2022-09-20T13:20:18;93281.03;;;21.34;45.63
65376;BME280;51976;47.332;9.404;2022-09-20T13:22:45;93278.66;;;21.32;45.95
65376;BME280;51976;47.332;9.404;2022-09-20T13:25:13;93282.53;;;21.31;46.07
65376;BME280;51976;47.332;9.404;2022-09-20T13:27:45;93269.97;;;21.30;46.07
65376;BME280;51976;47.332;9.404;2022-09-20T13:30:21;93274.19;;;21.27;46.23
65376;BME280;51976;47.332;9.404;2022-09-20T13:32:48;93264.34;;;21.26;45.92
65376;BME280;51976;47.332;9.404;2022-09-20T13:35:21;93270.63;;;21.27;46.11
65376;BME280;51976;47.332;9.404;2022-09-20T13:38:01;93265.81;;;21.24;46.04
65376;BME280;51976;47.332;9.404;2022-09-20T13:40:34;93265.81;;;21.24;46.02
65376;BME280;51976;47.332;9.404;2022-09-20T13:43:05;93263.41;;;21.22;46.05
65376;BME280;51976;47.332;9.404;2022-09-20T13:45:32;93265.50;;;21.25;46.14
65376;BME280;51976;47.332;9.404;2022-09-20T13:47:58;93266.28;;;21.26;46.10
65376;BME280;51976;47.332;9.404;2022-09-20T13:50:29;93269.72;;;21.23;45.91
65376;BME280;51976;47.332;9.404;2022-09-20T13:52:59;93268.09;;;21.22;46.19
65376;BME280;51976;47.332;9.404;2022-09-20T13:55:30;93268.75;;;21.19;46.09
65376;BME280;51976;47.332;9.404;2022-09-20T13:58:00;93266.00;;;21.19;45.91
65376;BME280;51976;47.332;9.404;2022-09-20T14:00:27;93267.13;;;21.18;46.06
65376;BME280;51976;47.332;9.404;2022-09-20T14:02:54;93267.81;;;21.15;46.19
65376;BME280;51976;47.332;9.404;2022-09-20T14:05:22;93269.75;;;21.14;46.32
65376;BME280;51976;47.332;9.404;2022-09-20T14:07:49;93269.75;;;21.14;46.35
65376;BME280;51976;47.332;9.404;2022-09-20T14:10:32;93273.97;;;21.12;46.18
65376;BME280;51976;47.332;9.404;2022-09-20T14:13:00;93268.16;;;21.13;46.47
65376;BME280;51976;47.332;9.404;2022-09-20T14:15:33;93272.97;;;21.16;46.09
65376;BME280;51976;47.332;9.404;2022-09-20T14:18:01;93268.47;;;21.12;46.26
65376;BME280;51976;47.332;9.404;2022-09-20T14:20:28;93271.22;;;21.12;46.16
65376;BME280;51976;47.332;9.404;2022-09-20T14:22:54;93271.56;;;21.10;46.21
65376;BME280;51976;47.332;9.404;2022-09-20T14:25:22;93276.72;;;21.12;46.40
65376;BME280;51976;47.332;9.404;2022-09-20T14:28:15;93276.72;;;21.12;46.38
65376;BME280;51976;47.332;9.404;2022-09-20T14:30:41;93271.22;;;21.12;46.44
65376;BME280;51976;47.332;9.404;2022-09-20T14:33:14;93274.31;;;21.10;46.48
65376;BME280;51976;47.332;9.404;2022-09-20T14:35:46;93277.72;;;21.07;46.22
65376;BME280;51976;47.332;9.404;2022-09-20T14:38:13;93292.22;;;21.08;46.22
65376;BME280;51976;47.332;9.404;2022-09-20T14:40:46;93289.03;;;21.06;46.32
65376;BME280;51976;47.332;9.404;2022-09-20T14:43:30;93291.78;;;21.06;46.68
65376;BME280;51976;47.332;9.404;2022-09-20T14:46:04;93284.69;;;21.05;46.41
65376;BME280;51976;47.332;9.404;2022-09-20T14:48:36;93286.16;;;21.02;46.64
65376;BME280;51976;47.332;9.404;2022-09-20T14:51:19;93262.91;;;20.87;46.52